Time;durP1;ratioP1;P1;durP2;ratioP2;P2;SDS_P1;SDS_P2;PMS_P1;PMS_P2;Temp;Humidity;BMP_temperature;BMP_pressure;BME280_temperature;BME280_humidity;BME280_pressure;Samples;Min_cycle;Max_cycle;Signal;HPM_P1;HPM_P2
2022/09/07 00:01:20;;;;;;;15.50;12.02;;;19.30;99.90;;;;;;5097898;28;20101;-52
2022/09/07 00:03:45;;;;;;;14.20;12.32;;;19.20;99.90;;;;;;5097505;28;20083;-53
2022/09/07 00:06:12;;;;;;;14.45;11.57;;;19.10;99.90;;;;;;5097668;28;20071;-51
2022/09/07 00:08:40;;;;;;;18.48;13.45;;;19.00;99.90;;;;;;5098513;28;20493;-51
2022/09/07 00:11:11;;;;;;;15.45;11.75;;;19.00;99.90;;;;;;5098471;28;20126;-51
2022/09/07 00:13:38;;;;;;;15.43;12.50;;;18.90;99.90;;;;;;5098105;28;20447;-51
2022/09/07 00:16:15;;;;;;;16.58;12.73;;;18.90;99.90;;;;;;5097417;28;20076;-50
2022/09/07 00:18:41;;;;;;;14.65;12.85;;;18.80;99.90;;;;;;5075651;28;20041;-51
2022/09/07 00:21:09;;;;;;;16.73;14.13;;;18.80;99.90;;;;;;5078381;28;20044;-51
2022/09/07 00:23:37;;;;;;;18.30;13.05;;;18.70;99.90;;;;;;5077693;28;20119;-48
2022/09/07 00:26:11;;;;;;;15.13;12.68;;;18.70;99.90;;;;;;5077947;28;20045;-49
2022/09/07 00:28:38;;;;;;;13.30;11.30;;;18.60;99.90;;;;;;5077978;28;20052;-52
2022/09/07 00:31:08;;;;;;;14.23;12.15;;;18.50;99.90;;;;;;5077204;28;20667;-51
2022/09/07 00:33:33;;;;;;;17.83;13.10;;;18.60;99.90;;;;;;5077969;28;20032;-49
2022/09/07 00:35:59;;;;;;;16.77;13.48;;;18.60;99.90;;;;;;5077072;28;20131;-51
2022/09/07 00:38:25;;;;;;;15.77;12.80;;;18.60;99.90;;;;;;5086937;28;20044;-51
2022/09/07 00:40:51;;;;;;;17.10;11.68;;;18.60;99.90;;;;;;5097567;28;20044;-48
2022/09/07 00:43:39;;;;;;;15.45;12.68;;;18.50;99.90;;;;;;5097893;28;20056;-50
2022/09/07 00:46:09;;;;;;;15.10;12.93;;;18.40;99.90;;;;;;5097724;28;20040;-50
2022/09/07 00:48:44;;;;;;;14.20;12.32;;;18.50;99.90;;;;;;5097144;28;20103;-50
2022/09/07 00:51:35;;;;;;;14.85;12.60;;;18.60;99.90;;;;;;5098311;28;20047;-48
2022/09/07 00:54:11;;;;;;;15.02;12.43;;;18.50;99.90;;;;;;5097675;28;20051;-50
2022/09/07 00:56:40;;;;;;;14.55;12.05;;;18.40;99.90;;;;;;5097346;28;20095;-51
2022/09/07 00:59:06;;;;;;;15.50;13.65;;;18.50;99.90;;;;;;5097413;28;20063;-49
2022/09/07 01:01:33;;;;;;;15.10;12.45;;;18.50;99.90;;;;;;5097002;28;20046;-51
2022/09/07 01:03:59;;;;;;;15.32;12.88;;;18.50;99.90;;;;;;5098234;28;20087;-49
2022/09/07 01:06:29;;;;;;;18.45;13.30;;;18.50;99.90;;;;;;5096947;28;20048;-48
2022/09/07 01:09:01;;;;;;;15.40;11.50;;;18.50;99.90;;;;;;5097487;28;20081;-52
2022/09/07 01:11:27;;;;;;;16.00;12.18;;;18.30;99.90;;;;;;5097714;28;20107;-52
2022/09/07 01:13:53;;;;;;;15.38;11.82;;;18.30;99.90;;;;;;5097123;28;20047;-51
2022/09/07 01:16:40;;;;;;;15.85;11.93;;;18.50;99.90;;;;;;5094328;28;20051;-52
2022/09/07 01:19:43;;;;;;;17.33;13.73;;;18.50;99.90;;;;;;5076628;28;20136;-51
2022/09/07 01:22:30;;;;;;;17.55;12.98;;;18.40;99.90;;;;;;5076866;28;20040;-51
2022/09/07 01:25:12;;;;;;;15.57;13.85;;;18.50;99.90;;;;;;5077298;28;20127;-51
2022/09/07 01:27:47;;;;;;;18.17;13.18;;;18.40;99.90;;;;;;5076696;28;20044;-51
2022/09/07 01:30:17;;;;;;;15.98;12.75;;;18.30;99.90;;;;;;5077319;28;20122;-51
2022/09/07 01:33:13;;;;;;;17.67;14.18;;;18.20;99.90;;;;;;5077390;28;20476;-51
2022/09/07 01:35:48;;;;;;;15.75;14.00;;;18.20;99.90;;;;;;5076484;28;20083;-52
2022/09/07 01:38:17;;;;;;;17.90;15.70;;;18.20;99.90;;;;;;5086309;28;20036;-50
2022/09/07 01:40:56;;;;;;;17.48;13.73;;;17.80;99.90;;;;;;5096903;28;20502;-51
2022/09/07 01:43:44;;;;;;;18.42;15.20;;;17.80;99.90;;;;;;5097268;28;20044;-53
2022/09/07 01:47:11;;;;;;;20.85;13.70;;;17.90;99.90;;;;;;5097164;28;20040;-56
2022/09/07 01:50:01;;;;;;;19.77;11.30;;;17.70;99.90;;;;;;5071186;28;20062;-58
2022/09/07 01:52:33;;;;;;;25.17;13.55;;;17.60;99.90;;;;;;5096645;28;20082;-58
2022/09/07 01:55:19;;;;;;;38.60;17.45;;;17.50;99.90;;;;;;5097434;28;20036;-59
2022/09/07 01:57:53;;;;;;;26.55;18.90;;;17.40;99.90;;;;;;5096583;28;20075;-57
2022/09/07 02:00:19;;;;;;;27.90;17.23;;;17.50;99.90;;;;;;5097472;28;20078;-57
2022/09/07 02:02:51;;;;;;;23.10;17.33;;;17.40;99.90;;;;;;5100736;28;20046;-56
2022/09/07 02:05:25;;;;;;;23.45;17.17;;;17.30;99.90;;;;;;5100461;28;20044;-56
2022/09/07 02:08:01;;;;;;;20.50;16.10;;;17.40;99.90;;;;;;5101042;28;20051;-56
2022/09/07 02:10:50;;;;;;;19.92;15.25;;;17.20;99.90;;;;;;5098411;28;20047;-56
2022/09/07 02:13:22;;;;;;;18.15;13.55;;;17.30;99.90;;;;;;5100278;28;20056;-56
2022/09/07 02:16:01;;;;;;;24.27;14.40;;;17.40;99.90;;;;;;5100744;28;20453;-56
2022/09/07 02:18:32;;;;;;;17.88;13.25;;;17.40;99.90;;;;;;5079672;28;20075;-57
2022/09/07 02:21:00;;;;;;;13.45;10.35;;;17.40;99.90;;;;;;5080732;28;20052;-57
2022/09/07 02:23:31;;;;;;;18.27;10.77;;;17.40;99.90;;;;;;5079788;28;20052;-56
2022/09/07 02:26:04;;;;;;;13.75;9.57;;;17.60;99.90;;;;;;5080286;28;20048;-57
2022/09/07 02:28:35;;;;;;;13.32;9.75;;;17.50;99.90;;;;;;5078980;28;20454;-57
2022/09/07 02:31:01;;;;;;;17.50;10.75;;;17.60;99.90;;;;;;5078300;28;20536;-56
2022/09/07 02:33:28;;;;;;;13.30;9.35;;;17.60;99.90;;;;;;5080443;28;20083;-56
2022/09/07 02:35:54;;;;;;;13.43;9.63;;;17.70;99.90;;;;;;5079402;28;20048;-56
2022/09/07 02:38:20;;;;;;;13.18;8.75;;;17.70;99.90;;;;;;5089974;28;20717;-56
2022/09/07 02:41:05;;;;;;;13.00;9.23;;;17.70;99.90;;;;;;5099729;28;20064;-56
2022/09/07 02:43:31;;;;;;;12.10;9.10;;;17.70;99.90;;;;;;5099783;28;20060;-55
2022/09/07 02:46:08;;;;;;;11.98;8.95;;;17.80;99.90;;;;;;5100017;28;20141;-55
2022/09/07 02:49:10;;;;;;;10.90;8.07;;;17.90;99.90;;;;;;5097754;28;20144;-55
2022/09/07 02:51:51;;;;;;;;;;;17.80;99.90;;;;;;5100555;28;20040;-54
2022/09/07 02:54:28;;;;;;;11.07;7.60;;;17.80;99.90;;;;;;5100162;28;19975;-53
2022/09/07 02:57:20;;;;;;;12.90;8.35;;;17.80;99.90;;;;;;5098988;28;20069;-53
2022/09/07 03:00:00;;;;;;;11.40;7.72;;;17.90;99.90;;;;;;5100175;28;20051;-53
2022/09/07 03:02:51;;;;;;;11.70;7.85;;;17.90;99.90;;;;;;5099572;28;20376;-53
2022/09/07 03:05:58;;;;;;;10.88;8.40;;;17.70;99.90;;;;;;5099227;28;20040;-53
2022/09/07 03:08:36;;;;;;;13.13;8.90;;;17.80;99.90;;;;;;5088750;28;20048;-53
2022/09/07 03:11:04;;;;;;;11.60;8.20;;;17.90;99.90;;;;;;5099501;28;20036;-51
2022/09/07 03:13:30;;;;;;;11.05;8.23;;;17.80;99.90;;;;;;5098892;28;20567;-53
2022/09/07 03:15:56;;;;;;;11.73;8.40;;;17.80;99.90;;;;;;5099407;28;20067;-53
2022/09/07 03:18:23;;;;;;;11.68;8.95;;;17.90;99.90;;;;;;5078605;28;20040;-52
2022/09/07 03:20:48;;;;;;;13.38;9.05;;;17.90;99.90;;;;;;5079211;28;20513;-52
2022/09/07 03:23:14;;;;;;;14.57;9.18;;;17.90;99.90;;;;;;5078445;28;20055;-52
2022/09/07 03:25:40;;;;;;;13.63;9.40;;;17.80;99.90;;;;;;5079154;28;20040;-52
2022/09/07 03:28:05;;;;;;;14.18;10.43;;;17.90;99.90;;;;;;5078858;28;20071;-51
2022/09/07 03:30:31;;;;;;;11.00;8.90;;;17.90;99.90;;;;;;5078692;28;20068;-53
2022/09/07 03:32:57;;;;;;;12.35;9.85;;;17.90;99.90;;;;;;5077651;28;20139;-51
2022/09/07 03:35:22;;;;;;;11.82;9.10;;;17.90;99.90;;;;;;5078297;28;20076;-52
2022/09/07 03:37:48;;;;;;;10.90;8.05;;;17.90;99.90;;;;;;5083829;28;20047;-50
2022/09/07 03:40:15;;;;;;;11.32;8.60;;;17.90;99.90;;;;;;5098097;28;20060;-51
2022/09/07 03:42:41;;;;;;;12.73;8.60;;;18.00;99.90;;;;;;5099166;28;20048;-51
2022/09/07 03:45:08;;;;;;;12.05;8.23;;;18.00;99.90;;;;;;5098654;28;20627;-51
2022/09/07 03:47:37;;;;;;;10.88;7.85;;;17.90;99.90;;;;;;5098605;28;20064;-51
2022/09/07 03:50:04;;;;;;;10.38;7.47;;;17.90;99.90;;;;;;5098972;28;20123;-52
2022/09/07 03:52:29;;;;;;;9.95;7.07;;;17.80;99.90;;;;;;5098193;28;20044;-49
2022/09/07 03:54:55;;;;;;;9.75;6.75;;;17.90;99.90;;;;;;5098910;28;20138;-50
2022/09/07 03:57:21;;;;;;;11.65;7.70;;;17.90;99.90;;;;;;5097794;28;20108;-51
2022/09/07 03:59:48;;;;;;;10.18;7.72;;;17.90;99.90;;;;;;5098928;28;20119;-50
2022/09/07 04:02:14;;;;;;;10.63;7.43;;;17.70;99.90;;;;;;5098293;28;20083;-50
2022/09/07 04:04:42;;;;;;;10.68;7.10;;;17.80;99.90;;;;;;5098562;28;20093;-52
2022/09/07 04:07:08;;;;;;;11.10;7.22;;;17.80;99.90;;;;;;5098478;28;20040;-51
2022/09/07 04:09:33;;;;;;;9.85;6.80;;;17.80;99.90;;;;;;5097967;28;20050;-52
2022/09/07 04:11:59;;;;;;;9.90;6.95;;;17.70;99.90;;;;;;5096787;28;20044;-51
2022/09/07 04:14:25;;;;;;;11.07;7.00;;;17.60;99.90;;;;;;5097506;28;20040;-52
2022/09/07 04:16:50;;;;;;;8.43;6.85;;;17.60;99.90;;;;;;5090687;28;20044;-51
2022/09/07 04:19:17;;;;;;;11.07;6.25;;;17.70;99.90;;;;;;5077603;28;20163;-49
2022/09/07 04:21:45;;;;;;;12.00;6.32;;;17.80;99.90;;;;;;5078013;28;20120;-51
2022/09/07 04:24:12;;;;;;;9.40;6.45;;;17.70;99.90;;;;;;5077521;28;20048;-51
2022/09/07 04:26:38;;;;;;;9.70;6.63;;;17.70;99.90;;;;;;5077276;28;20085;-52
2022/09/07 04:29:04;;;;;;;10.88;6.53;;;17.70;99.90;;;;;;5078020;28;20107;-51
2022/09/07 04:31:32;;;;;;;9.57;6.30;;;17.70;99.90;;;;;;5077188;28;20044;-48
2022/09/07 04:33:58;;;;;;;10.60;6.10;;;17.60;99.90;;;;;;5078197;28;20055;-51
2022/09/07 04:36:23;;;;;;;11.85;6.72;;;17.60;99.90;;;;;;5076274;28;20455;-50
2022/09/07 04:38:58;;;;;;;9.35;6.53;;;17.60;99.90;;;;;;5091330;28;20645;-51
2022/09/07 04:41:24;;;;;;;9.55;6.28;;;17.60;99.90;;;;;;5098219;28;20051;-51
2022/09/07 04:43:55;;;;;;;9.65;6.47;;;17.60;99.90;;;;;;5097399;28;20043;-50
2022/09/07 04:46:24;;;;;;;10.10;5.45;;;17.50;99.90;;;;;;5098022;28;20075;-50
2022/09/07 04:48:52;;;;;;;11.43;6.13;;;17.50;99.90;;;;;;5097399;28;20040;-50
2022/09/07 04:51:19;;;;;;;9.80;5.82;;;17.50;99.90;;;;;;5098128;28;20036;-49
2022/09/07 04:53:48;;;;;;;11.15;6.03;;;17.40;99.90;;;;;;5097716;28;20047;-48
2022/09/07 04:56:14;;;;;;;10.20;5.93;;;17.40;99.90;;;;;;5097541;28;20052;-51
2022/09/07 04:58:40;;;;;;;12.65;6.35;;;17.40;99.90;;;;;;5097888;28;20048;-48
2022/09/07 05:01:06;;;;;;;10.18;6.28;;;17.40;99.90;;;;;;5097178;28;20055;-50
2022/09/07 05:03:35;;;;;;;9.98;6.10;;;17.30;99.90;;;;;;5098053;28;20140;-50
2022/09/07 05:06:04;;;;;;;10.27;6.63;;;17.30;99.90;;;;;;5097089;28;20048;-48
2022/09/07 05:08:35;;;;;;;12.02;7.20;;;17.20;99.90;;;;;;5098029;28;20048;-50
2022/09/07 05:11:01;;;;;;;11.68;7.38;;;17.20;99.90;;;;;;5097670;28;20056;-51
2022/09/07 05:13:30;;;;;;;11.15;7.03;;;17.10;99.90;;;;;;5097229;28;20036;-49
2022/09/07 05:15:56;;;;;;;10.68;6.78;;;17.10;99.90;;;;;;5097587;28;20536;-51
2022/09/07 05:18:21;;;;;;;12.27;7.25;;;17.10;99.90;;;;;;5075658;28;20048;-49
2022/09/07 05:20:47;;;;;;;9.70;7.47;;;17.00;99.90;;;;;;5077306;28;20598;-50
2022/09/07 05:23:13;;;;;;;11.57;8.68;;;17.20;99.90;;;;;;5077057;28;20589;-48
2022/09/07 05:25:43;;;;;;;11.85;8.65;;;17.20;99.90;;;;;;5077571;28;20461;-50
2022/09/07 05:28:09;;;;;;;14.70;9.15;;;17.20;99.90;;;;;;5077206;28;20045;-48
2022/09/07 05:30:35;;;;;;;15.10;9.25;;;17.20;99.90;;;;;;5076978;28;20071;-49
2022/09/07 05:33:01;;;;;;;12.60;9.43;;;17.20;99.90;;;;;;5075702;28;20049;-51
2022/09/07 05:35:27;;;;;;;17.88;10.45;;;17.20;99.90;;;;;;5076819;28;20710;-48
2022/09/07 05:37:52;;;;;;;16.98;10.40;;;17.20;99.90;;;;;;5086884;28;20046;-48
2022/09/07 05:40:18;;;;;;;19.88;12.43;;;17.30;99.90;;;;;;5100237;28;20044;-48
2022/09/07 05:42:44;;;;;;;21.27;14.35;;;17.30;99.90;;;;;;5101391;28;20036;-51
2022/09/07 05:45:10;;;;;;;18.88;13.45;;;17.40;99.90;;;;;;5101012;28;20071;-51
2022/09/07 05:47:36;;;;;;;19.60;14.63;;;17.40;99.90;;;;;;5100761;28;20055;-50
2022/09/07 05:50:04;;;;;;;16.48;13.95;;;17.40;99.90;;;;;;5100978;28;20048;-50
2022/09/07 05:52:30;;;;;;;21.52;15.75;;;17.50;99.90;;;;;;5100216;28;20043;-51
2022/09/07 05:54:56;;;;;;;21.77;16.48;;;17.30;99.90;;;;;;5101047;28;20072;-51
2022/09/07 05:57:21;;;;;;;21.25;17.27;;;17.50;99.90;;;;;;5100175;28;20051;-49
2022/09/07 05:59:47;;;;;;;19.88;17.00;;;17.50;99.90;;;;;;5101162;28;20052;-53
2022/09/07 06:02:14;;;;;;;22.52;17.88;;;17.50;99.90;;;;;;5100890;28;20079;-51
2022/09/07 06:04:40;;;;;;;23.05;18.48;;;17.50;99.90;;;;;;5100763;28;20055;-52
2022/09/07 06:07:07;;;;;;;26.30;18.98;;;17.40;99.90;;;;;;5099841;28;20051;-51
2022/09/07 06:09:32;;;;;;;21.40;19.10;;;17.60;99.90;;;;;;5100003;28;20044;-51
2022/09/07 06:11:58;;;;;;;20.92;18.40;;;17.60;99.90;;;;;;5099108;28;20044;-49
2022/09/07 06:14:24;;;;;;;25.42;17.88;;;17.60;99.90;;;;;;5098761;28;20058;-52
2022/09/07 06:16:49;;;;;;;22.58;19.70;;;17.70;99.90;;;;;;5092850;28;20045;-52
2022/09/07 06:19:15;;;;;;;26.83;20.98;;;17.60;99.90;;;;;;5080277;28;20083;-50
2022/09/07 06:21:41;;;;;;;27.67;22.20;;;17.60;99.90;;;;;;5080261;28;20051;-51
2022/09/07 06:24:06;;;;;;;22.30;19.13;;;17.70;99.90;;;;;;5080128;28;20036;-52
2022/09/07 06:26:32;;;;;;;25.48;21.13;;;17.70;99.90;;;;;;5079773;28;20048;-51
2022/09/07 06:28:58;;;;;;;23.25;20.05;;;17.70;99.90;;;;;;5080263;28;20060;-52
2022/09/07 06:31:24;;;;;;;25.77;21.45;;;17.50;99.90;;;;;;5079416;28;20047;-51
2022/09/07 06:33:51;;;;;;;26.13;20.45;;;17.50;99.90;;;;;;5080518;28;20109;-49
2022/09/07 06:36:26;;;;;;;22.05;18.42;;;17.60;99.90;;;;;;5079867;28;20120;-50
2022/09/07 06:38:54;;;;;;;25.77;19.95;;;17.60;99.90;;;;;;5093749;28;20051;-52
2022/09/07 06:41:22;;;;;;;21.98;19.17;;;17.40;99.90;;;;;;5100489;28;20502;-51
2022/09/07 06:43:48;;;;;;;23.58;19.20;;;17.60;99.90;;;;;;5099682;28;20040;-51
2022/09/07 06:46:15;;;;;;;22.67;19.42;;;17.60;99.90;;;;;;5100050;28;20055;-51
2022/09/07 06:48:41;;;;;;;23.45;19.52;;;17.60;99.90;;;;;;5099387;28;20036;-52
2022/09/07 06:51:14;;;;;;;24.95;20.55;;;17.60;99.90;;;;;;5100397;28;20093;-51
2022/09/07 06:53:39;;;;;;;22.38;19.95;;;17.50;99.90;;;;;;5099980;28;20457;-52
2022/09/07 06:56:12;;;;;;;21.17;18.13;;;17.50;99.90;;;;;;5099816;28;20428;-49
2022/09/07 06:58:38;;;;;;;25.10;20.73;;;17.60;99.90;;;;;;5099834;28;20052;-49
2022/09/07 07:01:13;;;;;;;23.50;19.95;;;17.50;99.90;;;;;;5099401;28;20097;-51
2022/09/07 07:03:39;;;;;;;21.00;18.70;;;17.50;99.90;;;;;;5100144;28;20055;-50
2022/09/07 07:06:06;;;;;;;23.27;20.48;;;17.50;99.90;;;;;;5099551;28;20199;-51
2022/09/07 07:08:32;;;;;;;25.48;21.13;;;17.70;99.90;;;;;;5099991;28;20594;-51
2022/09/07 07:11:03;;;;;;;23.88;20.40;;;17.60;99.90;;;;;;5099573;28;20417;-51
2022/09/07 07:13:28;;;;;;;25.30;20.60;;;17.60;99.90;;;;;;5099371;28;20524;-52
2022/09/07 07:16:05;;;;;;;24.88;21.27;;;17.60;99.90;;;;;;5099826;28;20568;-52
2022/09/07 07:18:32;;;;;;;27.77;20.75;;;17.60;99.90;;;;;;5078696;28;20106;-52
2022/09/07 07:21:00;;;;;;;25.52;21.80;;;17.60;99.90;;;;;;5079719;28;20041;-52
2022/09/07 07:23:26;;;;;;;29.00;22.20;;;17.70;99.90;;;;;;5078649;28;20070;-51
2022/09/07 07:25:51;;;;;;;27.17;21.80;;;17.70;99.90;;;;;;5079172;28;20048;-52
2022/09/07 07:28:17;;;;;;;34.72;26.02;;;17.80;99.90;;;;;;5079015;28;20079;-48
2022/09/07 07:30:42;;;;;;;26.63;23.75;;;17.70;99.90;;;;;;5078777;28;20080;-51
2022/09/07 07:33:11;;;;;;;29.95;24.70;;;17.70;99.90;;;;;;5078740;28;20044;-51
2022/09/07 07:35:37;;;;;;;31.73;25.52;;;17.70;99.90;;;;;;5078360;28;20080;-50
2022/09/07 07:38:02;;;;;;;32.58;25.00;;;17.80;99.90;;;;;;5085940;28;20043;-51
2022/09/07 07:40:28;;;;;;;31.60;26.63;;;17.90;99.90;;;;;;5098550;28;20527;-51
2022/09/07 07:42:54;;;;;;;31.92;26.27;;;17.90;99.90;;;;;;5099142;28;20051;-51
2022/09/07 07:45:20;;;;;;;30.58;27.15;;;17.90;99.90;;;;;;5099232;28;20044;-51
2022/09/07 07:47:52;;;;;;;29.85;26.75;;;17.90;99.90;;;;;;5098634;28;20063;-50
2022/09/07 07:50:18;;;;;;;33.38;26.70;;;17.90;99.90;;;;;;5097702;28;20036;-50
2022/09/07 07:52:43;;;;;;;31.80;26.23;;;18.00;99.90;;;;;;5097943;28;20107;-49
2022/09/07 07:55:09;;;;;;;32.70;27.25;;;17.90;99.90;;;;;;5099251;28;20040;-49
2022/09/07 07:57:35;;;;;;;32.95;25.40;;;17.90;99.90;;;;;;5098331;28;20143;-51
2022/09/07 08:00:01;;;;;;;32.42;27.00;;;18.00;99.90;;;;;;5098227;28;20098;-52
2022/09/07 08:02:26;;;;;;;33.80;27.35;;;18.00;99.90;;;;;;5098885;28;20118;-50
2022/09/07 08:04:52;;;;;;;32.55;27.23;;;18.00;99.90;;;;;;5098663;28;20450;-51
2022/09/07 08:07:18;;;;;;;31.25;26.55;;;18.10;99.90;;;;;;5098599;28;20074;-51
2022/09/07 08:09:46;;;;;;;29.45;26.20;;;18.10;99.90;;;;;;5097859;28;20040;-50
2022/09/07 08:12:17;;;;;;;33.55;26.60;;;18.20;99.90;;;;;;5098829;28;20104;-52
2022/09/07 08:14:43;;;;;;;32.20;27.30;;;18.10;99.90;;;;;;5098053;28;20052;-52
2022/09/07 08:17:11;;;;;;;32.05;26.83;;;18.20;99.90;;;;;;5088272;28;20041;-49
2022/09/07 08:19:37;;;;;;;31.30;25.83;;;18.30;99.90;;;;;;5078417;28;20048;-51
2022/09/07 08:22:03;;;;;;;32.20;25.95;;;18.40;99.90;;;;;;5077505;28;20071;-52
2022/09/07 08:24:32;;;;;;;33.72;25.42;;;18.40;99.90;;;;;;5078110;28;20045;-52
2022/09/07 08:26:58;;;;;;;32.13;26.40;;;18.50;99.90;;;;;;5077309;28;20044;-52
2022/09/07 08:29:24;;;;;;;32.95;27.92;;;18.50;99.90;;;;;;5078400;28;20059;-51
2022/09/07 08:31:49;;;;;;;30.38;25.95;;;18.50;99.90;;;;;;5077853;28;20064;-56
2022/09/07 08:34:16;;;;;;;33.70;28.45;;;18.50;99.90;;;;;;5076829;28;20041;-52
2022/09/07 08:36:41;;;;;;;32.75;26.77;;;18.60;99.90;;;;;;5078095;28;20044;-51
2022/09/07 08:39:07;;;;;;;32.40;27.48;;;18.50;99.90;;;;;;5093482;28;20043;-51
2022/09/07 08:41:42;;;;;;;34.00;28.52;;;18.40;99.90;;;;;;5098250;28;20040;-51
2022/09/07 08:44:19;;;;;;;38.20;28.83;;;18.20;99.90;;;;;;5097556;28;20052;-49
2022/09/07 08:46:55;;;;;;;32.50;28.50;;;18.30;99.90;;;;;;5098238;28;20539;-52
2022/09/07 08:49:45;;;;;;;34.45;29.35;;;18.30;99.90;;;;;;5097992;28;20037;-51
2022/09/07 08:52:19;;;;;;;31.45;26.98;;;18.30;99.90;;;;;;5097852;28;20036;-52
2022/09/07 08:55:11;;;;;;;33.78;28.70;;;18.30;99.90;;;;;;5098147;28;20044;-52
2022/09/07 08:57:42;;;;;;;33.53;27.52;;;18.30;99.90;;;;;;5097539;28;20036;-50
2022/09/07 09:00:13;;;;;;;33.20;29.05;;;18.50;99.90;;;;;;5097993;28;20052;-50
2022/09/07 09:02:39;;;;;;;35.30;28.02;;;18.50;99.90;;;;;;5098106;28;20044;-51
2022/09/07 09:05:20;;;;;;;35.65;28.02;;;18.50;99.90;;;;;;5097490;28;20064;-49
2022/09/07 09:08:17;;;;;;;30.92;26.55;;;18.70;99.90;;;;;;5098009;28;20044;-52
2022/09/07 09:11:00;;;;;;;34.17;27.02;;;18.70;99.90;;;;;;5099867;28;20051;-53
2022/09/07 09:13:42;;;;;;;38.88;27.63;;;18.80;99.90;;;;;;5101555;28;20076;-52
2022/09/07 09:16:31;;;;;;;37.08;27.83;;;18.80;99.90;;;;;;5100075;28;20044;-52
2022/09/07 09:19:21;;;;;;;32.22;26.88;;;18.90;99.90;;;;;;5081031;28;20102;-49
2022/09/07 09:21:47;;;;;;;30.25;26.40;;;19.00;99.90;;;;;;5081390;28;20041;-49
2022/09/07 09:24:32;;;;;;;36.58;28.15;;;19.00;99.90;;;;;;5081719;28;20044;-48
2022/09/07 09:26:59;;;;;;;30.15;25.95;;;19.20;99.90;;;;;;5080906;28;20046;-51
2022/09/07 09:29:24;;;;;;;30.02;26.80;;;19.30;99.90;;;;;;5081613;28;20071;-50
2022/09/07 09:31:52;;;;;;;33.30;25.98;;;19.30;99.90;;;;;;5081136;28;20040;-48
2022/09/07 09:34:19;;;;;;;31.08;27.30;;;19.40;99.90;;;;;;5080009;28;20044;-50
2022/09/07 09:36:51;;;;;;;31.73;25.83;;;19.40;99.90;;;;;;5081497;28;20040;-49
2022/09/07 09:39:33;;;;;;;30.85;26.75;;;19.20;99.90;;;;;;5098002;28;20055;-52
2022/09/07 09:42:10;;;;;;;30.05;24.90;;;19.30;99.90;;;;;;5101649;28;20044;-50
2022/09/07 09:44:37;;;;;;;30.13;25.05;;;19.40;99.90;;;;;;5101088;28;20040;-51
2022/09/07 09:47:03;;;;;;;29.35;24.88;;;19.40;99.90;;;;;;5101500;28;20130;-48
2022/09/07 09:49:47;;;;;;;28.90;24.40;;;19.50;99.90;;;;;;5101070;28;20085;-52
2022/09/07 09:52:17;;;;;;;26.75;23.83;;;19.70;99.90;;;;;;5100803;28;20040;-52
2022/09/07 09:54:48;;;;;;;26.00;22.50;;;19.80;99.90;;;;;;5101506;28;20075;-51
2022/09/07 09:57:15;;;;;;;25.73;21.87;;;19.90;99.90;;;;;;5099249;28;20093;-48
2022/09/07 09:59:40;;;;;;;27.88;23.35;;;19.90;99.90;;;;;;5101139;28;20595;-51
2022/09/07 10:02:29;;;;;;;18.85;16.90;;;19.90;99.90;;;;;;5100946;28;20085;-51
2022/09/07 10:04:55;;;;;;;19.35;15.82;;;19.90;99.90;;;;;;5100654;28;20047;-52
2022/09/07 10:07:25;;;;;;;17.23;14.68;;;19.80;99.90;;;;;;5100815;28;20040;-50
2022/09/07 10:09:55;;;;;;;15.45;13.60;;;19.90;99.90;;;;;;5099885;28;20055;-52
2022/09/07 10:12:31;;;;;;;13.00;11.27;;;20.10;99.90;;;;;;5101247;28;20044;-50
2022/09/07 10:14:59;;;;;;;17.60;11.80;;;20.20;99.90;;;;;;5100513;28;20059;-49
2022/09/07 10:17:40;;;;;;;13.63;11.73;;;20.30;99.90;;;;;;5087677;28;20043;-52
2022/09/07 10:20:14;;;;;;;13.68;10.50;;;20.40;99.90;;;;;;5080734;28;20059;-52
2022/09/07 10:22:43;;;;;;;13.10;11.05;;;20.10;99.90;;;;;;5078883;28;20045;-50
2022/09/07 10:25:29;;;;;;;12.50;10.98;;;19.80;99.90;;;;;;5080694;28;20044;-52
2022/09/07 10:28:15;;;;;;;12.70;10.38;;;20.10;99.90;;;;;;5080101;28;20052;-50
2022/09/07 10:31:15;;;;;;;12.52;9.50;;;20.30;99.90;;;;;;5079819;28;20633;-51
2022/09/07 10:33:52;;;;;;;15.13;10.60;;;20.50;99.90;;;;;;5080396;28;20928;-51
2022/09/07 10:36:32;;;;;;;11.43;9.45;;;20.80;99.90;;;;;;5080190;28;20102;-50
2022/09/07 10:39:07;;;;;;;9.95;8.48;;;21.00;99.90;;;;;;5094506;28;20105;-50
2022/09/07 10:42:00;;;;;;;11.18;9.13;;;20.90;99.90;;;;;;5100142;28;20059;-51
2022/09/07 10:45:02;;;;;;;10.73;8.45;;;21.00;99.90;;;;;;5096664;28;20059;-51
2022/09/07 10:47:46;;;;;;;10.32;8.13;;;20.90;99.90;;;;;;5099429;28;20044;-50
2022/09/07 10:50:40;;;;;;;11.45;9.10;;;20.80;99.90;;;;;;5100095;28;20040;-52
2022/09/07 10:53:24;;;;;;;11.23;7.90;;;21.20;99.90;;;;;;5099668;28;20479;-51
2022/09/07 10:56:04;;;;;;;10.15;7.75;;;21.50;99.90;;;;;;5100074;28;20066;-52
2022/09/07 10:58:59;;;;;;;10.20;7.22;;;21.50;99.90;;;;;;5100036;28;20044;-52
2022/09/07 11:01:37;;;;;;;8.98;6.60;;;21.80;99.90;;;;;;5090461;28;20527;-51
2022/09/07 11:04:25;;;;;;;9.75;6.95;;;21.70;99.90;;;;;;5100288;28;20090;-52
2022/09/07 11:06:58;;;;;;;10.65;7.47;;;22.20;99.90;;;;;;5099766;28;20040;-51
2022/09/07 11:09:26;;;;;;;10.25;6.95;;;22.40;99.90;;;;;;5098884;28;20048;-52
2022/09/07 11:11:59;;;;;;;10.02;6.05;;;22.50;99.90;;;;;;5099914;28;20055;-51
2022/09/07 11:14:27;;;;;;;8.38;5.88;;;22.40;99.90;;;;;;5099343;28;20047;-51
2022/09/07 11:17:00;;;;;;;9.05;5.90;;;22.50;99.90;;;;;;5091452;28;20920;-52
2022/09/07 11:19:40;;;;;;;8.63;6.13;;;22.60;99.90;;;;;;5079523;28;20036;-52
2022/09/07 11:22:28;;;;;;;10.45;5.65;;;22.50;99.90;;;;;;5078924;28;20048;-52
2022/09/07 11:25:22;;;;;;;7.70;4.82;;;22.50;99.90;;;;;;5079537;28;20052;-52
2022/09/07 11:28:02;;;;;;;7.03;4.88;;;22.70;99.90;;;;;;5078872;28;20036;-51
2022/09/07 11:30:38;;;;;;;7.03;3.75;;;22.70;99.90;;;;;;5078497;28;20814;-49
2022/09/07 11:33:16;;;;;;;5.97;3.55;;;22.70;99.90;;;;;;5079237;28;20036;-52
2022/09/07 11:35:54;;;;;;;6.22;3.38;;;22.70;99.90;;;;;;5078308;28;20052;-51
2022/09/07 11:38:38;;;;;;;9.05;3.75;;;22.70;99.90;;;;;;5088779;28;20100;-52
2022/09/07 11:41:17;;;;;;;6.82;3.60;;;22.90;99.90;;;;;;5099286;28;20396;-52
2022/09/07 11:43:46;;;;;;;6.93;3.20;;;23.10;99.90;;;;;;5098715;28;20554;-52
2022/09/07 11:46:19;;;;;;;6.43;3.55;;;23.30;99.90;;;;;;5099029;28;20785;-52
2022/09/07 11:48:55;;;;;;;7.22;3.90;;;23.00;99.90;;;;;;5098430;28;20048;-51
2022/09/07 11:51:41;;;;;;;6.60;3.20;;;22.60;99.90;;;;;;5098777;28;20127;-52
2022/09/07 11:54:33;;;;;;;5.70;3.15;;;22.70;99.90;;;;;;5099150;28;20055;-52
2022/09/07 11:57:34;;;;;;;7.40;2.90;;;22.60;99.90;;;;;;5087917;28;20056;-52
2022/09/07 12:00:20;;;;;;;5.00;2.30;;;22.40;99.90;;;;;;5098979;28;20039;-49
2022/09/07 12:03:07;;;;;;;5.18;2.30;;;22.60;99.90;;;;;;5098703;28;20051;-52
2022/09/07 12:05:41;;;;;;;5.07;2.40;;;22.70;99.90;;;;;;5096655;28;20122;-51
2022/09/07 12:08:25;;;;;;;4.60;2.25;;;22.80;99.90;;;;;;5098903;28;20048;-52
2022/09/07 12:11:18;;;;;;;5.38;2.00;;;22.60;99.90;;;;;;5098688;28;20048;-49
2022/09/07 12:14:22;;;;;;;5.93;2.30;;;22.80;99.90;;;;;;5096733;28;20036;-51
2022/09/07 12:17:16;;;;;;;4.93;2.00;;;22.70;99.90;;;;;;5089939;28;20044;-50
2022/09/07 12:19:42;;;;;;;6.15;2.30;;;22.60;99.90;;;;;;5078220;28;20127;-53
2022/09/07 12:22:21;;;;;;;5.45;2.25;;;22.70;99.90;;;;;;5077615;28;20041;-52
2022/09/07 12:24:52;;;;;;;4.80;2.10;;;22.90;99.90;;;;;;5078475;28;20036;-50
2022/09/07 12:27:20;;;;;;;4.30;2.00;;;23.10;99.90;;;;;;5077557;28;20063;-49
2022/09/07 12:29:46;;;;;;;5.30;1.80;;;23.30;99.90;;;;;;5078112;28;20048;-52
2022/09/07 12:32:32;;;;;;;4.45;1.58;;;23.40;99.90;;;;;;5078111;28;20058;-48
2022/09/07 12:34:58;;;;;;;4.55;2.00;;;23.70;99.90;;;;;;5077336;28;20076;-52
2022/09/07 12:37:37;;;;;;;6.00;1.95;;;23.60;99.90;;;;;;5079813;28;20052;-52
2022/09/07 12:40:28;;;;;;;5.07;2.00;;;23.40;99.90;;;;;;5097038;28;20051;-49
2022/09/07 12:43:12;;;;;;;4.43;1.88;;;23.60;99.90;;;;;;5098071;28;20040;-51
2022/09/07 12:45:37;;;;;;;4.97;1.92;;;23.70;99.90;;;;;;5097935;28;20408;-50
2022/09/07 12:48:13;;;;;;;5.35;1.80;;;23.80;99.90;;;;;;5097527;28;20036;-52
2022/09/07 12:51:33;;;;;;;4.05;1.80;;;24.00;99.90;;;;;;5098289;28;20051;-51
2022/09/07 12:54:20;;;;;;;4.22;1.83;;;24.00;99.90;;;;;;5075211;28;20102;-50
2022/09/07 12:56:52;;;;;;;5.55;2.08;;;24.10;99.90;;;;;;5095788;28;20063;-52
2022/09/07 12:59:33;;;;;;;6.45;1.90;;;24.00;99.90;;;;;;5097975;28;20070;-51
2022/09/07 13:02:27;;;;;;;4.53;2.03;;;23.80;99.90;;;;;;5097905;28;20044;-51